Time;durP1;ratioP1;P1;durP2;ratioP2;P2;SDS_P1;SDS_P2;PMS_P1;PMS_P2;Temp;Humidity;BMP_temperature;BMP_pressure;BME280_temperature;BME280_humidity;BME280_pressure;Samples;Min_cycle;Max_cycle;Signal;HPM_P1;HPM_P2
2021/11/05 00:00:48;;;;;;;3.47;3.20;;;12.20;56.90;;;;;;5042139;28;20510;-48
2021/11/05 00:03:14;;;;;;;3.50;3.20;;;12.30;56.60;;;;;;5042355;28;20204;-49
2021/11/05 00:05:39;;;;;;;2.57;2.40;;;12.30;56.30;;;;;;5046406;28;20201;-49
2021/11/05 00:08:08;;;;;;;3.07;2.80;;;12.40;56.30;;;;;;5043520;28;20795;-50
2021/11/05 00:10:36;;;;;;;2.70;2.50;;;12.50;56.10;;;;;;5039219;28;20279;-49
2021/11/05 00:13:03;;;;;;;3.27;3.07;;;12.50;55.90;;;;;;5050786;28;20482;-49
2021/11/05 00:15:29;;;;;;;2.77;2.57;;;12.40;56.10;;;;;;5043035;28;20442;-52
2021/11/05 00:17:54;;;;;;;2.90;2.70;;;12.30;56.30;;;;;;5040547;28;20560;-49
2021/11/05 00:20:20;;;;;;;3.00;2.80;;;12.30;56.50;;;;;;5044798;28;20643;-49
2021/11/05 00:22:46;;;;;;;3.80;3.60;;;12.20;56.50;;;;;;5044731;28;20279;-48
2021/11/05 00:25:11;;;;;;;3.10;2.80;;;12.40;56.30;;;;;;5046415;28;20198;-52
2021/11/05 00:27:39;;;;;;;4.17;2.50;;;12.40;56.50;;;;;;5045705;28;20349;-48
2021/11/05 00:30:06;;;;;;;3.47;2.83;;;12.50;56.30;;;;;;5074523;28;20196;-51
2021/11/05 00:32:32;;;;;;;3.73;2.63;;;12.40;56.50;;;;;;5041851;28;20501;-48
2021/11/05 00:34:57;;;;;;;3.43;2.70;;;12.50;56.90;;;;;;5044025;28;20462;-49
2021/11/05 00:37:23;;;;;;;3.17;2.90;;;12.50;57.20;;;;;;5038374;28;20615;-48
2021/11/05 00:39:48;;;;;;;3.80;3.10;;;12.60;57.10;;;;;;5042251;28;20193;-50
2021/11/05 00:42:14;;;;;;;2.50;2.30;;;12.70;56.90;;;;;;5041616;28;20688;-47
2021/11/05 00:44:40;;;;;;;4.93;2.50;;;12.70;56.90;;;;;;5044657;28;20186;-48
2021/11/05 00:47:05;;;;;;;2.60;2.40;;;12.90;56.90;;;;;;5044522;28;20196;-48
2021/11/05 00:49:31;;;;;;;3.40;3.10;;;13.00;56.90;;;;;;5045141;28;20197;-49
2021/11/05 00:51:56;;;;;;;5.53;3.60;;;13.10;57.10;;;;;;5044624;28;20189;-49
2021/11/05 00:54:22;;;;;;;2.83;2.60;;;13.20;56.60;;;;;;5054486;28;20197;-50
2021/11/05 00:56:47;;;;;;;4.30;2.50;;;13.10;56.40;;;;;;5041788;28;20683;-50
2021/11/05 00:59:13;;;;;;;3.37;3.07;;;13.00;56.50;;;;;;5049042;28;20191;-48
2021/11/05 01:01:39;;;;;;;3.70;3.17;;;13.00;56.70;;;;;;5048231;28;20203;-48
2021/11/05 01:04:04;;;;;;;4.07;3.40;;;13.10;56.80;;;;;;5059610;28;20207;-48
2021/11/05 01:06:30;;;;;;;3.27;3.07;;;13.10;56.90;;;;;;5056460;28;20192;-50
2021/11/05 01:08:56;;;;;;;3.17;2.97;;;13.00;57.00;;;;;;5061477;28;20215;-49
2021/11/05 01:11:21;;;;;;;3.03;2.73;;;13.00;57.20;;;;;;5053341;28;20221;-48
2021/11/05 01:13:47;;;;;;;3.40;2.90;;;13.00;57.20;;;;;;5044340;28;20307;-48
2021/11/05 01:16:13;;;;;;;3.90;3.60;;;13.00;57.20;;;;;;5042635;28;20205;-47
2021/11/05 01:18:38;;;;;;;4.33;2.83;;;12.90;57.30;;;;;;5044956;28;20566;-51
2021/11/05 01:21:04;;;;;;;3.93;3.60;;;12.90;57.30;;;;;;5058637;28;20562;-48
2021/11/05 01:23:29;;;;;;;3.33;3.03;;;12.90;57.40;;;;;;5051791;28;20575;-50
2021/11/05 01:25:55;;;;;;;5.10;3.97;;;12.90;57.40;;;;;;5048711;28;20197;-48
2021/11/05 01:28:21;;;;;;;4.43;3.10;;;13.00;57.80;;;;;;5054033;28;20189;-48
2021/11/05 01:30:46;;;;;;;3.90;3.50;;;13.00;57.80;;;;;;5039155;28;20199;-50
2021/11/05 01:33:12;;;;;;;3.27;2.97;;;13.00;57.90;;;;;;5058288;28;20289;-51
2021/11/05 01:35:39;;;;;;;3.43;3.20;;;13.00;58.00;;;;;;5075383;28;20653;-48
2021/11/05 01:38:08;;;;;;;4.20;3.67;;;13.00;58.00;;;;;;5052633;28;20486;-48
2021/11/05 01:40:34;;;;;;;3.70;3.40;;;13.00;58.00;;;;;;5044603;28;20445;-48
2021/11/05 01:43:01;;;;;;;3.40;3.10;;;13.10;58.00;;;;;;5040896;28;20799;-51
2021/11/05 01:45:29;;;;;;;3.80;3.27;;;13.00;58.00;;;;;;5047481;28;20228;-48
2021/11/05 01:47:55;;;;;;;4.50;3.83;;;13.00;58.30;;;;;;5043617;28;20436;-50
2021/11/05 01:50:21;;;;;;;4.20;3.80;;;12.90;58.70;;;;;;5046780;28;20493;-48
2021/11/05 01:52:47;;;;;;;3.47;2.83;;;12.90;58.80;;;;;;5054331;28;20226;-48
2021/11/05 01:55:13;;;;;;;4.90;4.10;;;12.90;58.80;;;;;;5046602;28;20197;-53
2021/11/05 01:57:41;;;;;;;4.10;3.70;;;12.90;58.50;;;;;;5041812;28;20473;-52
2021/11/05 02:00:09;;;;;;;4.07;3.43;;;12.90;58.50;;;;;;5046214;28;21012;-52
2021/11/05 02:02:35;;;;;;;4.20;3.80;;;12.90;58.60;;;;;;5036065;28;20437;-52
2021/11/05 02:05:00;;;;;;;3.90;3.43;;;12.90;58.80;;;;;;5048206;28;20927;-52
2021/11/05 02:07:32;;;;;;;4.20;3.60;;;12.90;58.80;;;;;;5038396;28;20197;-53
2021/11/05 02:09:58;;;;;;;4.20;3.80;;;12.90;58.80;;;;;;5037476;28;20201;-52
2021/11/05 02:12:24;;;;;;;6.73;4.30;;;12.90;58.80;;;;;;5045710;28;20487;-51
2021/11/05 02:14:51;;;;;;;4.40;3.70;;;13.00;58.90;;;;;;5047829;28;20446;-48
2021/11/05 02:17:17;;;;;;;3.83;3.53;;;12.90;59.00;;;;;;5045139;28;20235;-52
2021/11/05 02:19:43;;;;;;;4.97;4.00;;;12.90;59.00;;;;;;5040048;28;20522;-52
2021/11/05 02:22:09;;;;;;;4.60;4.20;;;12.90;59.20;;;;;;5046997;28;20200;-52
2021/11/05 02:24:34;;;;;;;8.80;5.07;;;12.80;59.20;;;;;;5046969;28;20451;-50
2021/11/05 02:27:01;;;;;;;4.90;4.50;;;12.70;59.70;;;;;;5048924;28;20195;-47
2021/11/05 02:29:29;;;;;;;5.13;4.60;;;12.70;60.10;;;;;;5039965;28;20704;-47
2021/11/05 02:31:55;;;;;;;6.10;4.27;;;12.70;60.40;;;;;;5035540;28;20856;-49
2021/11/05 02:34:21;;;;;;;4.67;4.23;;;12.50;60.40;;;;;;5048745;28;20442;-50
2021/11/05 02:36:47;;;;;;;5.03;4.63;;;12.50;60.50;;;;;;5046399;28;20237;-49
2021/11/05 02:39:13;;;;;;;6.17;4.60;;;12.50;60.90;;;;;;5048988;28;20287;-48
2021/11/05 02:41:44;;;;;;;4.70;4.30;;;12.50;60.90;;;;;;5042324;28;20913;-48
2021/11/05 02:44:10;;;;;;;6.60;4.83;;;12.40;60.80;;;;;;5045029;28;20287;-48
2021/11/05 02:46:36;;;;;;;4.83;4.30;;;12.40;60.80;;;;;;5047754;28;20613;-51
2021/11/05 02:49:06;;;;;;;5.30;4.80;;;12.40;60.70;;;;;;5042812;28;20434;-49
2021/11/05 02:51:33;;;;;;;5.00;4.50;;;12.40;60.80;;;;;;5040417;28;20201;-48
2021/11/05 02:54:00;;;;;;;5.20;4.73;;;12.40;60.80;;;;;;5048561;28;20486;-49
2021/11/05 02:56:26;;;;;;;4.63;4.23;;;12.20;60.70;;;;;;5050617;28;20529;-48
2021/11/05 02:58:52;;;;;;;3.90;3.60;;;12.20;61.30;;;;;;5046462;28;20539;-50
2021/11/05 03:01:19;;;;;;;4.87;4.47;;;12.30;61.40;;;;;;5070510;28;20569;-48
2021/11/05 03:03:45;;;;;;;4.57;4.10;;;12.40;61.20;;;;;;5046242;28;20514;-50
2021/11/05 03:06:11;;;;;;;5.63;4.40;;;12.40;60.90;;;;;;5051777;28;20446;-48
2021/11/05 03:08:37;;;;;;;4.47;4.07;;;12.50;60.50;;;;;;5044098;28;20450;-48
2021/11/05 03:11:03;;;;;;;4.50;4.10;;;12.50;60.50;;;;;;5042657;28;20607;-48
2021/11/05 03:13:28;;;;;;;4.10;3.80;;;12.50;60.40;;;;;;5043775;28;20490;-48
2021/11/05 03:15:54;;;;;;;4.63;4.20;;;12.50;60.10;;;;;;5048453;28;20192;-48
2021/11/05 03:18:20;;;;;;;4.07;3.60;;;12.50;60.00;;;;;;5041482;28;20201;-48
2021/11/05 03:20:46;;;;;;;4.43;4.03;;;12.50;60.20;;;;;;5037663;28;20200;-48
2021/11/05 03:23:14;;;;;;;4.47;4.07;;;12.30;59.90;;;;;;5050217;28;20200;-48
2021/11/05 03:25:40;;;;;;;4.03;3.70;;;12.00;60.50;;;;;;5043003;28;20439;-48
2021/11/05 03:28:08;;;;;;;5.60;4.40;;;12.10;60.90;;;;;;5041315;28;20477;-48
2021/11/05 03:30:33;;;;;;;4.13;3.83;;;12.20;60.80;;;;;;5041884;28;20441;-47
2021/11/05 03:32:59;;;;;;;3.77;3.47;;;12.30;60.70;;;;;;5051736;28;20482;-49
2021/11/05 03:35:25;;;;;;;3.80;3.50;;;12.30;60.50;;;;;;5043015;28;20193;-50
2021/11/05 03:37:51;;;;;;;4.07;3.77;;;12.30;60.60;;;;;;5041755;28;20193;-47
2021/11/05 03:40:19;;;;;;;3.63;3.23;;;12.20;60.50;;;;;;5038402;28;20189;-48
2021/11/05 03:42:48;;;;;;;4.40;4.00;;;12.30;60.60;;;;;;5041125;28;20501;-50
2021/11/05 03:45:16;;;;;;;5.03;4.60;;;12.20;60.40;;;;;;5044325;28;20442;-50
2021/11/05 03:47:41;;;;;;;4.00;3.60;;;12.20;60.60;;;;;;5050576;28;20459;-48
2021/11/05 03:50:07;;;;;;;4.83;4.43;;;12.10;60.50;;;;;;5039065;28;21323;-48
2021/11/05 03:52:33;;;;;;;5.00;4.17;;;12.20;60.70;;;;;;5048904;28;20644;-48
2021/11/05 03:54:59;;;;;;;4.40;4.10;;;12.20;60.50;;;;;;5045894;28;20442;-48
2021/11/05 03:57:25;;;;;;;3.80;3.50;;;12.20;60.40;;;;;;5045290;28;20518;-47
2021/11/05 03:59:51;;;;;;;4.60;4.20;;;12.20;61.30;;;;;;5041990;28;20618;-48
2021/11/05 04:02:17;;;;;;;3.77;3.47;;;12.10;61.00;;;;;;5047400;28;20436;-49
2021/11/05 04:04:42;;;;;;;4.63;4.17;;;12.20;61.10;;;;;;5039434;28;20201;-47
2021/11/05 04:07:08;;;;;;;4.70;4.03;;;12.30;60.90;;;;;;5044692;28;20196;-48
2021/11/05 04:09:34;;;;;;;4.13;3.83;;;12.40;60.80;;;;;;5046128;28;20272;-51
2021/11/05 04:12:00;;;;;;;4.37;3.43;;;12.40;60.90;;;;;;5040213;28;20219;-47
2021/11/05 04:14:25;;;;;;;5.00;4.50;;;12.40;60.80;;;;;;5052929;28;20192;-50
2021/11/05 04:16:51;;;;;;;5.10;4.57;;;12.30;60.70;;;;;;5047324;28;20189;-47
2021/11/05 04:19:16;;;;;;;5.60;3.87;;;12.20;61.10;;;;;;5045908;28;21058;-48
2021/11/05 04:21:42;;;;;;;5.10;3.80;;;12.20;61.10;;;;;;5049992;28;20203;-47
2021/11/05 04:24:08;;;;;;;3.20;2.90;;;12.20;61.20;;;;;;5058743;28;20618;-52
2021/11/05 04:26:34;;;;;;;3.33;3.13;;;12.20;61.20;;;;;;5049689;28;20192;-47
2021/11/05 04:29:00;;;;;;;3.43;3.13;;;12.30;61.30;;;;;;5044000;28;20189;-47
2021/11/05 04:31:26;;;;;;;4.00;3.60;;;12.40;61.30;;;;;;5047095;28;20524;-48
2021/11/05 04:33:52;;;;;;;3.97;3.57;;;12.30;61.20;;;;;;5055843;28;20494;-48
2021/11/05 04:36:21;;;;;;;4.33;3.93;;;12.40;61.30;;;;;;5048283;28;20608;-50
2021/11/05 04:38:48;;;;;;;4.00;3.67;;;12.40;61.20;;;;;;5045330;28;20224;-47
2021/11/05 04:41:13;;;;;;;4.07;3.40;;;12.50;61.20;;;;;;5047723;28;20523;-47
2021/11/05 04:43:39;;;;;;;3.47;3.27;;;12.50;60.90;;;;;;5051689;28;20499;-48
2021/11/05 04:46:05;;;;;;;4.40;4.00;;;12.50;60.70;;;;;;5049692;28;20296;-47
2021/11/05 04:48:31;;;;;;;3.90;3.60;;;12.50;60.80;;;;;;5046600;28;20196;-47
2021/11/05 04:50:56;;;;;;;3.57;3.27;;;12.40;60.80;;;;;;5041548;28;20192;-48
2021/11/05 04:53:22;;;;;;;5.27;3.90;;;12.40;61.10;;;;;;5040809;28;20336;-49
2021/11/05 04:55:47;;;;;;;3.80;3.50;;;12.50;61.20;;;;;;5044626;28;20193;-48
2021/11/05 04:58:13;;;;;;;3.23;2.93;;;12.40;61.20;;;;;;5048501;28;20190;-47
2021/11/05 05:00:39;;;;;;;3.50;3.20;;;12.20;61.50;;;;;;5058469;28;20260;-48
2021/11/05 05:03:05;;;;;;;3.73;3.43;;;12.30;62.00;;;;;;5051843;28;20235;-51
2021/11/05 05:05:30;;;;;;;3.50;3.30;;;12.30;61.90;;;;;;5046337;28;20464;-51
2021/11/05 05:07:57;;;;;;;3.37;2.80;;;12.40;62.00;;;;;;5043039;28;20557;-51
2021/11/05 05:10:25;;;;;;;3.90;3.20;;;12.40;61.80;;;;;;5047328;28;20235;-51
2021/11/05 05:12:51;;;;;;;3.63;3.33;;;12.50;61.70;;;;;;5036194;28;20486;-50
2021/11/05 05:15:17;;;;;;;4.60;4.20;;;12.50;61.40;;;;;;5036861;28;20428;-51
2021/11/05 05:17:43;;;;;;;3.90;3.60;;;12.50;61.70;;;;;;5056718;28;20440;-51
2021/11/05 05:20:12;;;;;;;4.73;4.00;;;12.50;61.70;;;;;;5040773;28;20476;-51
2021/11/05 05:22:39;;;;;;;4.20;3.90;;;12.50;61.80;;;;;;5054065;28;20458;-52
2021/11/05 05:25:06;;;;;;;3.80;3.50;;;12.50;61.80;;;;;;5047858;28;20451;-51
2021/11/05 05:27:32;;;;;;;4.77;3.87;;;12.50;61.80;;;;;;5052091;28;20894;-53
2021/11/05 05:29:58;;;;;;;4.60;3.80;;;12.60;61.90;;;;;;5048804;28;20471;-49
2021/11/05 05:32:24;;;;;;;4.07;3.77;;;12.60;61.80;;;;;;5051844;28;20231;-50
2021/11/05 05:34:50;;;;;;;3.37;3.07;;;12.60;61.60;;;;;;5047504;28;20192;-51
2021/11/05 05:37:15;;;;;;;4.33;3.93;;;12.70;61.60;;;;;;5056679;28;20489;-47
2021/11/05 05:39:41;;;;;;;3.77;3.47;;;12.60;61.50;;;;;;5054326;28;20437;-52
2021/11/05 05:42:07;;;;;;;3.80;3.50;;;12.60;61.30;;;;;;5052222;28;20285;-48
2021/11/05 05:44:34;;;;;;;4.20;3.80;;;12.70;61.40;;;;;;5051501;28;20185;-48
2021/11/05 05:47:00;;;;;;;4.17;3.77;;;12.70;61.30;;;;;;5049042;28;20200;-48
2021/11/05 05:49:26;;;;;;;4.30;3.80;;;12.60;61.20;;;;;;5042558;28;20974;-47
2021/11/05 05:51:52;;;;;;;11.57;6.90;;;12.60;61.20;;;;;;5041132;28;20447;-47
2021/11/05 05:54:17;;;;;;;9.40;5.13;;;12.60;61.40;;;;;;5045284;28;20521;-47
2021/11/05 05:56:43;;;;;;;7.47;5.57;;;12.50;61.40;;;;;;5049270;28;20322;-48
2021/11/05 05:59:09;;;;;;;5.93;4.97;;;12.60;61.50;;;;;;5044083;28;20660;-48
2021/11/05 06:01:35;;;;;;;7.37;5.20;;;12.60;61.50;;;;;;5055097;28;20191;-48
2021/11/05 06:04:01;;;;;;;5.10;4.67;;;12.60;61.40;;;;;;5053714;28;20193;-49
2021/11/05 06:06:30;;;;;;;5.07;4.57;;;12.70;61.40;;;;;;5041734;28;20438;-48
2021/11/05 06:08:57;;;;;;;3.77;3.47;;;12.60;61.20;;;;;;5046137;28;20447;-47
2021/11/05 06:11:24;;;;;;;8.30;3.00;;;12.60;61.40;;;;;;5065611;28;21021;-49
2021/11/05 06:13:49;;;;;;;4.07;3.67;;;12.70;62.90;;;;;;5049840;28;20547;-47
2021/11/05 06:16:15;;;;;;;4.43;2.93;;;12.90;64.50;;;;;;5039115;28;20999;-47
2021/11/05 06:18:41;;;;;;;3.73;3.37;;;13.20;64.50;;;;;;5053268;28;20232;-48
2021/11/05 06:21:06;;;;;;;3.70;3.40;;;13.40;63.90;;;;;;5045741;28;20205;-49
2021/11/05 06:23:32;;;;;;;4.00;3.60;;;13.50;62.20;;;;;;5039775;28;20570;-50
2021/11/05 06:25:58;;;;;;;4.07;3.77;;;13.50;59.70;;;;;;5041459;28;20185;-47
2021/11/05 06:28:25;;;;;;;4.33;3.60;;;13.60;60.10;;;;;;5049585;28;20205;-47
2021/11/05 06:30:51;;;;;;;3.63;3.33;;;13.70;60.00;;;;;;5057348;28;20432;-47
2021/11/05 06:33:18;;;;;;;5.50;4.10;;;13.80;59.80;;;;;;5060810;28;20501;-49
2021/11/05 06:35:45;;;;;;;5.17;3.77;;;13.90;59.50;;;;;;5040381;28;20984;-47
2021/11/05 06:38:11;;;;;;;8.17;5.97;;;14.00;59.10;;;;;;5046551;28;20462;-47
2021/11/05 06:40:37;;;;;;;5.10;4.17;;;14.10;59.10;;;;;;5036823;28;20459;-48
2021/11/05 06:43:02;;;;;;;4.67;4.20;;;14.10;58.80;;;;;;5037460;28;20219;-48
2021/11/05 06:45:30;;;;;;;4.07;3.67;;;14.20;58.50;;;;;;5043753;28;20193;-47
2021/11/05 06:47:56;;;;;;;3.93;3.53;;;14.30;58.20;;;;;;5037730;28;20225;-48
2021/11/05 06:50:22;;;;;;;3.67;3.30;;;14.30;58.10;;;;;;5051088;28;20493;-48
2021/11/05 06:52:48;;;;;;;4.20;3.50;;;14.30;58.00;;;;;;5048118;28;20676;-47
2021/11/05 06:55:13;;;;;;;4.20;3.13;;;14.40;57.80;;;;;;5047085;28;20201;-49
2021/11/05 06:57:39;;;;;;;4.03;3.70;;;14.40;57.60;;;;;;5050912;28;20460;-48
2021/11/05 07:00:09;;;;;;;4.50;3.40;;;14.50;57.80;;;;;;5048622;28;20217;-47
2021/11/05 07:02:40;;;;;;;4.10;3.70;;;14.50;57.70;;;;;;5048278;28;20443;-49
2021/11/05 07:05:16;;;;;;;3.80;3.50;;;14.50;57.70;;;;;;5047336;28;20513;-48
2021/11/05 07:07:42;;;;;;;4.10;3.70;;;14.50;57.60;;;;;;5037757;28;20931;-47
2021/11/05 07:10:11;;;;;;;5.07;4.10;;;14.50;57.30;;;;;;5041170;28;20516;-48
2021/11/05 07:12:38;;;;;;;4.40;3.90;;;14.50;56.90;;;;;;5045928;28;20475;-48
2021/11/05 07:15:04;;;;;;;5.37;3.43;;;14.10;57.30;;;;;;5047076;28;20470;-50
2021/11/05 07:17:30;;;;;;;3.50;3.20;;;14.00;57.60;;;;;;5037715;28;20440;-47
2021/11/05 07:19:56;;;;;;;5.60;5.03;;;14.10;58.00;;;;;;5049687;28;20573;-51
2021/11/05 07:22:24;;;;;;;7.07;5.90;;;14.20;58.10;;;;;;5048197;28;20201;-48
2021/11/05 07:24:51;;;;;;;6.67;4.40;;;14.30;58.10;;;;;;5046088;28;20537;-50
2021/11/05 07:27:17;;;;;;;5.13;4.63;;;14.30;57.90;;;;;;5041413;28;20437;-47
2021/11/05 07:29:43;;;;;;;6.03;4.00;;;14.40;57.90;;;;;;5036992;28;20428;-50
2021/11/05 07:32:09;;;;;;;4.87;4.13;;;14.40;58.00;;;;;;5042171;28;20727;-50
2021/11/05 07:34:37;;;;;;;3.90;3.50;;;14.40;57.80;;;;;;5044812;28;20193;-51
2021/11/05 07:37:07;;;;;;;5.23;4.20;;;14.50;57.70;;;;;;5049066;28;20454;-48
2021/11/05 07:39:32;;;;;;;4.10;3.80;;;14.50;57.60;;;;;;5048755;28;20804;-51
2021/11/05 07:41:58;;;;;;;4.87;4.10;;;14.50;57.50;;;;;;5037114;28;20432;-47
2021/11/05 07:44:24;;;;;;;4.83;3.80;;;14.50;57.50;;;;;;5071279;28;20204;-47
2021/11/05 07:46:49;;;;;;;4.53;4.13;;;14.40;57.60;;;;;;5048355;28;20196;-47
2021/11/05 07:49:16;;;;;;;4.30;3.87;;;14.30;57.40;;;;;;5060694;28;20563;-47
2021/11/05 07:51:42;;;;;;;4.70;4.27;;;14.10;58.00;;;;;;5051228;28;20273;-47
2021/11/05 07:54:08;;;;;;;4.20;3.83;;;14.10;58.20;;;;;;5051231;28;20968;-50
2021/11/05 07:56:35;;;;;;;3.83;3.53;;;14.00;58.70;;;;;;5051030;28;20423;-52
2021/11/05 07:59:02;;;;;;;4.00;3.63;;;14.00;58.60;;;;;;5051740;28;20419;-47
2021/11/05 08:01:27;;;;;;;4.20;3.70;;;14.10;58.70;;;;;;5049905;28;20419;-51
2021/11/05 08:03:53;;;;;;;5.30;4.80;;;14.20;58.70;;;;;;5050759;28;20786;-51
2021/11/05 08:06:19;;;;;;;4.10;3.60;;;14.30;58.60;;;;;;5049452;28;20185;-51
2021/11/05 08:08:44;;;;;;;4.93;4.47;;;14.30;58.30;;;;;;5051484;28;20204;-51
2021/11/05 08:11:12;;;;;;;4.77;4.27;;;14.40;58.20;;;;;;5050542;28;20591;-52
2021/11/05 08:13:37;;;;;;;6.33;4.40;;;14.50;58.10;;;;;;5051149;28;20228;-52
2021/11/05 08:16:03;;;;;;;5.63;4.70;;;14.30;57.90;;;;;;5050529;28;20434;-52
2021/11/05 08:18:29;;;;;;;5.07;4.63;;;14.40;58.20;;;;;;5051253;28;20235;-53
2021/11/05 08:20:55;;;;;;;4.57;4.17;;;14.40;58.40;;;;;;5050708;28;20427;-51
2021/11/05 08:23:21;;;;;;;4.30;3.90;;;14.50;58.40;;;;;;5051347;28;20188;-49
2021/11/05 08:25:47;;;;;;;4.73;4.20;;;14.50;58.30;;;;;;5050937;28;20268;-52
2021/11/05 08:28:18;;;;;;;5.10;4.70;;;14.60;58.40;;;;;;5051231;28;20434;-48
2021/11/05 08:30:45;;;;;;;4.27;3.90;;;14.70;58.40;;;;;;5050544;28;20518;-52
2021/11/05 08:33:11;;;;;;;5.03;4.50;;;14.70;58.10;;;;;;5049490;28;20850;-51
2021/11/05 08:35:38;;;;;;;4.03;3.73;;;14.70;58.10;;;;;;5050410;28;20489;-49
2021/11/05 08:38:08;;;;;;;6.63;4.47;;;14.60;58.00;;;;;;5051124;28;20844;-50
2021/11/05 08:40:35;;;;;;;5.07;4.40;;;14.60;58.20;;;;;;5049720;28;20442;-52
2021/11/05 08:43:00;;;;;;;5.93;4.67;;;14.40;58.00;;;;;;5051367;28;20438;-47
2021/11/05 08:45:26;;;;;;;4.70;4.30;;;14.20;58.60;;;;;;5050276;28;20427;-47
2021/11/05 08:47:52;;;;;;;4.47;4.07;;;14.30;58.90;;;;;;5051069;28;20193;-48
2021/11/05 08:50:23;;;;;;;4.33;4.00;;;14.40;58.80;;;;;;5050303;28;20192;-47
2021/11/05 08:52:49;;;;;;;4.10;3.80;;;14.50;58.70;;;;;;5051202;28;20248;-47
2021/11/05 08:55:16;;;;;;;4.10;3.80;;;14.60;58.70;;;;;;5050034;28;20835;-47
2021/11/05 08:57:41;;;;;;;4.63;4.23;;;14.70;58.50;;;;;;5049198;28;20431;-50
2021/11/05 09:00:21;;;;;;;4.17;3.77;;;14.70;58.10;;;;;;5049338;28;20442;-48
2021/11/05 09:02:48;;;;;;;4.47;3.90;;;14.80;58.10;;;;;;5050674;28;20282;-48
2021/11/05 09:05:14;;;;;;;5.10;4.47;;;14.90;58.10;;;;;;5051807;28;20569;-47
2021/11/05 09:07:40;;;;;;;5.17;4.70;;;14.90;57.90;;;;;;5073913;28;20931;-48
2021/11/05 09:10:07;;;;;;;5.63;4.30;;;14.90;57.80;;;;;;5074139;28;20430;-47
2021/11/05 09:12:33;;;;;;;5.40;4.90;;;14.90;57.40;;;;;;5074252;28;20678;-48
2021/11/05 09:14:59;;;;;;;4.53;3.70;;;14.90;57.60;;;;;;5064549;28;20447;-47
2021/11/05 09:17:25;;;;;;;6.10;3.90;;;14.90;57.80;;;;;;5054645;28;20426;-47
2021/11/05 09:19:50;;;;;;;6.50;4.87;;;14.90;57.60;;;;;;5053593;28;20717;-47
2021/11/05 09:22:16;;;;;;;6.17;4.47;;;15.00;57.50;;;;;;5054315;28;20705;-47
2021/11/05 09:24:42;;;;;;;3.93;3.53;;;15.00;57.70;;;;;;5051910;28;20644;-47
2021/11/05 09:27:10;;;;;;;5.83;5.20;;;15.00;57.80;;;;;;5053880;28;20217;-48
2021/11/05 09:29:35;;;;;;;4.43;4.03;;;15.00;57.90;;;;;;5046474;28;20439;-49
2021/11/05 09:32:01;;;;;;;4.67;4.30;;;15.20;57.90;;;;;;5043668;28;20788;-47
2021/11/05 09:34:31;;;;;;;5.37;4.87;;;15.20;57.80;;;;;;5046285;28;20225;-48
2021/11/05 09:36:59;;;;;;;5.53;5.10;;;15.30;57.80;;;;;;5049804;28;20727;-47
2021/11/05 09:39:25;;;;;;;4.50;4.10;;;15.40;57.60;;;;;;5043391;28;20446;-49
2021/11/05 09:41:50;;;;;;;4.87;4.47;;;15.40;58.20;;;;;;5039263;28;20454;-49
2021/11/05 09:44:16;;;;;;;4.93;4.40;;;15.50;57.70;;;;;;5042535;28;20514;-50
2021/11/05 09:46:42;;;;;;;5.03;4.27;;;15.70;57.50;;;;;;5056533;28;20192;-52
2021/11/05 09:49:08;;;;;;;4.60;4.23;;;15.80;57.30;;;;;;5049262;28;20253;-48
2021/11/05 09:51:35;;;;;;;4.13;3.73;;;15.90;56.80;;;;;;5039909;28;20442;-47
2021/11/05 09:54:02;;;;;;;5.43;4.93;;;16.00;57.20;;;;;;5041099;28;20224;-47
2021/11/05 09:56:28;;;;;;;4.67;4.27;;;16.10;56.60;;;;;;5043543;28;20428;-48
2021/11/05 09:58:54;;;;;;;4.83;4.43;;;16.00;55.80;;;;;;5048437;28;20485;-48
2021/11/05 10:01:20;;;;;;;4.03;3.63;;;15.80;56.40;;;;;;5045136;28;20431;-48
2021/11/05 10:03:46;;;;;;;3.70;3.40;;;15.80;56.70;;;;;;5041579;28;20200;-48
2021/11/05 10:06:13;;;;;;;4.40;3.77;;;15.70;56.30;;;;;;5039726;28;20192;-52
2021/11/05 10:08:39;;;;;;;5.67;4.10;;;15.70;56.70;;;;;;5043455;28;20432;-48
2021/11/05 10:11:33;;;;;;;3.83;3.50;;;15.60;56.50;;;;;;5038836;28;20443;-49
2021/11/05 10:14:01;;;;;;;4.83;3.53;;;15.50;56.90;;;;;;5044249;28;20980;-49
2021/11/05 10:16:29;;;;;;;4.83;4.43;;;15.30;56.90;;;;;;5041194;28;20469;-48
2021/11/05 10:19:01;;;;;;;4.00;3.60;;;15.40;57.20;;;;;;5053218;28;20546;-49
2021/11/05 10:21:27;;;;;;;6.80;4.30;;;15.50;57.40;;;;;;5036787;28;21025;-48
2021/11/05 10:24:04;;;;;;;4.73;4.33;;;15.40;57.40;;;;;;5047784;28;20447;-49
2021/11/05 10:26:32;;;;;;;9.43;4.47;;;15.40;57.70;;;;;;5042972;28;20427;-49
2021/11/05 10:28:59;;;;;;;4.50;4.13;;;15.50;57.80;;;;;;5045347;28;20431;-51
2021/11/05 10:31:27;;;;;;;6.23;3.40;;;15.50;57.70;;;;;;5044554;28;20437;-52
2021/11/05 10:33:53;;;;;;;4.47;4.07;;;15.50;57.40;;;;;;5073293;28;20485;-49
2021/11/05 10:36:21;;;;;;;4.73;4.33;;;15.50;57.10;;;;;;5045584;28;20496;-48
2021/11/05 10:38:48;;;;;;;8.20;4.23;;;15.40;56.70;;;;;;5041180;28;20428;-50
2021/11/05 10:41:20;;;;;;;4.60;4.20;;;15.40;56.70;;;;;;5039929;28;20558;-49
2021/11/05 10:43:52;;;;;;;4.43;4.13;;;15.40;56.50;;;;;;5036049;28;20506;-53
2021/11/05 10:46:39;;;;;;;4.13;3.80;;;15.40;56.70;;;;;;5042571;28;20542;-49
2021/11/05 10:49:19;;;;;;;5.10;3.57;;;15.40;56.60;;;;;;5043987;28;20449;-49
2021/11/05 10:51:45;;;;;;;4.83;4.40;;;15.40;56.60;;;;;;5049550;28;20442;-49
2021/11/05 10:54:11;;;;;;;4.27;3.90;;;15.50;57.00;;;;;;5038950;28;20492;-51
2021/11/05 10:56:38;;;;;;;4.80;4.30;;;15.50;56.90;;;;;;5038614;28;21080;-49
2021/11/05 10:59:10;;;;;;;5.10;4.67;;;15.60;57.00;;;;;;5046767;28;20203;-48
2021/11/05 11:01:38;;;;;;;4.63;4.23;;;15.60;56.90;;;;;;5039665;28;20446;-48
2021/11/05 11:04:06;;;;;;;4.43;4.03;;;15.60;57.20;;;;;;5038076;28;20946;-52
2021/11/05 11:06:44;;;;;;;5.27;3.70;;;15.70;57.30;;;;;;5044580;28;20443;-50
2021/11/05 11:09:13;;;;;;;5.13;4.53;;;15.80;57.20;;;;;;5052026;28;20438;-52
2021/11/05 11:11:45;;;;;;;4.60;4.20;;;15.90;57.30;;;;;;5046396;28;20882;-52
2021/11/05 11:14:18;;;;;;;4.67;4.27;;;15.90;56.90;;;;;;5051343;28;20798;-53
2021/11/05 11:17:04;;;;;;;5.97;5.37;;;16.00;56.10;;;;;;5051139;28;20431;-53
2021/11/05 11:19:31;;;;;;;5.80;4.73;;;16.00;56.70;;;;;;5038258;28;20475;-51
2021/11/05 11:21:58;;;;;;;5.70;4.93;;;16.10;56.60;;;;;;5033338;28;20435;-51
2021/11/05 11:24:31;;;;;;;6.00;5.00;;;16.20;56.70;;;;;;5041452;28;20678;-49
2021/11/05 11:26:59;;;;;;;4.63;4.23;;;16.20;56.60;;;;;;5047164;28;20431;-49
2021/11/05 11:29:27;;;;;;;4.63;4.33;;;16.20;56.70;;;;;;5049359;28;20427;-48
2021/11/05 11:31:55;;;;;;;4.30;4.00;;;16.30;55.80;;;;;;5057871;28;20500;-52
2021/11/05 11:34:22;;;;;;;4.77;4.37;;;16.30;55.40;;;;;;5043767;28;20475;-53
2021/11/05 11:37:09;;;;;;;4.70;4.30;;;16.30;55.10;;;;;;5043430;28;20518;-48
2021/11/05 11:39:34;;;;;;;5.10;4.60;;;16.50;55.10;;;;;;5039861;28;20436;-48
2021/11/05 11:42:06;;;;;;;4.43;4.13;;;16.50;54.40;;;;;;5066320;28;20463;-48
2021/11/05 11:44:36;;;;;;;5.20;4.70;;;16.50;54.80;;;;;;5033678;28;20668;-52
2021/11/05 11:47:02;;;;;;;4.53;4.13;;;16.40;54.10;;;;;;5033512;28;20443;-52
2021/11/05 11:49:43;;;;;;;5.40;4.73;;;16.30;54.80;;;;;;5049813;28;20432;-53
2021/11/05 11:52:15;;;;;;;5.10;4.70;;;16.20;53.80;;;;;;5049060;28;20224;-48
2021/11/05 11:54:42;;;;;;;5.90;5.40;;;16.10;54.90;;;;;;5048004;28;20967;-49
2021/11/05 11:57:17;;;;;;;5.50;5.00;;;16.10;55.10;;;;;;5050465;28;20461;-49
2021/11/05 11:59:46;;;;;;;6.70;5.17;;;16.30;55.00;;;;;;5056264;28;20516;-52
2021/11/05 12:02:46;;;;;;;6.10;5.60;;;16.20;55.50;;;;;;5045113;28;20779;-48
2021/11/05 12:05:29;;;;;;;6.10;5.50;;;16.30;55.50;;;;;;5021593;28;20452;-50
2021/11/05 12:08:15;;;;;;;4.97;4.67;;;16.30;55.00;;;;;;5041000;28;20474;-48
2021/11/05 12:11:19;;;;;;;8.33;5.50;;;16.30;54.90;;;;;;5049247;28;20451;-48
2021/11/05 12:13:51;;;;;;;6.30;5.70;;;16.30;54.50;;;;;;5045362;28;20891;-50
2021/11/05 12:16:26;;;;;;;6.00;5.50;;;16.30;54.30;;;;;;5053388;28;20580;-49
2021/11/05 12:18:57;;;;;;;5.97;5.47;;;16.30;54.00;;;;;;5046628;28;21270;-48
2021/11/05 12:21:30;;;;;;;6.30;5.60;;;16.20;55.20;;;;;;5037587;28;21013;-50
2021/11/05 12:24:17;;;;;;;6.23;5.13;;;16.20;54.80;;;;;;5047122;28;20541;-49
2021/11/05 12:26:51;;;;;;;5.57;5.07;;;16.30;55.40;;;;;;5046985;28;20446;-49
2021/11/05 12:29:49;;;;;;;5.40;4.90;;;16.30;55.10;;;;;;5050050;28;20450;-49
2021/11/05 12:32:18;;;;;;;6.47;5.60;;;16.40;54.30;;;;;;5030459;28;20446;-48
2021/11/05 12:34:56;;;;;;;6.43;5.57;;;16.40;54.40;;;;;;5038540;28;20454;-55
2021/11/05 12:37:33;;;;;;;7.17;6.43;;;16.40;54.70;;;;;;5038880;28;20436;-48
2021/11/05 12:40:21;;;;;;;6.33;5.73;;;16.40;54.40;;;;;;5048253;28;20422;-48
2021/11/05 12:42:52;;;;;;;6.53;5.90;;;16.40;54.20;;;;;;5050597;28;20446;-53
2021/11/05 12:45:19;;;;;;;6.27;5.67;;;16.40;54.30;;;;;;5040425;28;20440;-52
2021/11/05 12:47:59;;;;;;;7.73;7.00;;;16.30;53.90;;;;;;5053306;28;20485;-50
2021/11/05 12:50:27;;;;;;;8.53;5.60;;;16.30;54.50;;;;;;5043491;28;20943;-49